Time;durP1;ratioP1;P1;durP2;ratioP2;P2;SDS_P1;SDS_P2;PMS_P1;PMS_P2;Temp;Humidity;BMP_temperature;BMP_pressure;BME280_temperature;BME280_humidity;BME280_pressure;Samples;Min_cycle;Max_cycle;Signal;HPM_P1;HPM_P2
2023/01/22 00:01:16;;;;;;;1999.90;999.90;;;;;;;-0.17;100.00;97891.19;5103794;28;20466;-74
2023/01/22 00:03:41;;;;;;;1999.90;999.90;;;;;;;-0.11;100.00;97890.25;5097477;28;20078;-74
2023/01/22 00:06:09;;;;;;;1999.90;999.90;;;;;;;-0.13;100.00;97903.94;5098954;28;20818;-74
2023/01/22 00:08:34;;;;;;;1999.90;999.90;;;;;;;0.12;100.00;97900.28;5103889;28;20396;-74
2023/01/22 00:11:00;;;;;;;1999.90;999.90;;;;;;;0.17;100.00;97906.59;5106651;28;20037;-74
2023/01/22 00:13:26;;;;;;;1999.90;999.90;;;;;;;0.14;100.00;97911.59;5094389;28;20028;-74
2023/01/22 00:15:55;;;;;;;1999.90;999.90;;;;;;;0.08;100.00;97913.34;5106184;28;20137;-75
2023/01/22 00:18:20;;;;;;;1999.90;999.90;;;;;;;0.10;100.00;97918.47;5100360;28;20047;-75
2023/01/22 00:20:51;;;;;;;1999.90;999.90;;;;;;;0.12;100.00;97919.09;5098789;28;20047;-76
2023/01/22 00:23:17;;;;;;;1999.90;999.90;;;;;;;0.12;100.00;97938.75;5097002;28;20464;-75
2023/01/22 00:25:43;;;;;;;1999.90;999.90;;;;;;;0.18;100.00;97932.44;5100259;28;20036;-75
2023/01/22 00:28:09;;;;;;;1999.90;999.90;;;;;;;0.09;100.00;97941.88;5102490;28;20040;-75
2023/01/22 00:30:35;;;;;;;1999.90;999.90;;;;;;;0.16;100.00;97928.34;5100907;28;20031;-75
2023/01/22 00:33:00;;;;;;;1999.90;999.90;;;;;;;0.06;100.00;97938.84;5101858;28;20069;-76
2023/01/22 00:35:27;;;;;;;1999.90;999.90;;;;;;;0.09;100.00;97939.19;5101692;28;20059;-75
2023/01/22 00:37:53;;;;;;;1999.90;999.90;;;;;;;0.20;100.00;97929.50;5099006;28;20081;-75
2023/01/22 00:40:19;;;;;;;1999.90;999.90;;;;;;;-0.03;100.00;97936.44;5096639;28;20015;-75
2023/01/22 00:42:44;;;;;;;1999.90;999.90;;;;;;;0.13;100.00;97940.34;5107580;28;20023;-75
2023/01/22 00:45:13;;;;;;;1999.90;999.90;;;;;;;0.37;100.00;97939.38;5099509;28;20054;-75
2023/01/22 00:47:39;;;;;;;1999.90;999.90;;;;;;;0.39;100.00;97933.75;5106280;28;20126;-75
2023/01/22 00:50:05;;;;;;;1999.90;999.90;;;;;;;0.31;100.00;97936.81;5104175;28;20114;-75
2023/01/22 00:52:31;;;;;;;1999.90;999.90;;;;;;;0.21;100.00;97947.28;5109250;28;20031;-76
2023/01/22 00:54:56;;;;;;;1999.90;999.90;;;;;;;0.17;100.00;97951.47;5110907;28;20038;-75
2023/01/22 00:57:21;;;;;;;1999.90;999.90;;;;;;;0.07;100.00;97945.81;5110735;28;20039;-76
2023/01/22 00:59:47;;;;;;;1999.90;999.90;;;;;;;0.13;100.00;97951.13;5110821;28;20106;-75
2023/01/22 01:02:13;;;;;;;1999.90;999.90;;;;;;;0.06;100.00;97938.84;5110769;28;20015;-75
2023/01/22 01:04:39;;;;;;;1999.90;999.90;;;;;;;-0.02;100.00;97954.22;5111113;28;20069;-76
2023/01/22 01:07:05;;;;;;;1999.90;999.90;;;;;;;-0.02;100.00;97942.66;5110472;28;20047;-76
2023/01/22 01:09:30;;;;;;;1999.90;999.90;;;;;;;0.00;100.00;97948.63;5110824;28;20559;-75
2023/01/22 01:11:55;;;;;;;1999.90;999.90;;;;;;;-0.01;100.00;97949.69;5110731;28;20111;-75
2023/01/22 01:14:21;;;;;;;1999.90;999.90;;;;;;;-0.05;100.00;97943.09;5110048;28;20097;-76
2023/01/22 01:16:49;;;;;;;1999.90;999.90;;;;;;;-0.13;100.00;97946.13;5110304;28;20065;-76
2023/01/22 01:19:16;;;;;;;1999.90;999.90;;;;;;;-0.10;100.00;97951.03;5109259;28;20147;-76
2023/01/22 01:21:42;;;;;;;1999.90;999.90;;;;;;;-0.18;100.00;97944.09;5110610;28;20034;-76
2023/01/22 01:24:09;;;;;;;1999.90;999.90;;;;;;;-0.23;100.00;97941.28;5109328;28;20023;-76
2023/01/22 01:26:34;;;;;;;1999.90;999.90;;;;;;;-0.19;100.00;97941.66;5110428;28;20061;-76
2023/01/22 01:29:00;;;;;;;1999.90;999.90;;;;;;;-0.07;100.00;97947.91;5110380;28;20037;-75
2023/01/22 01:31:25;;;;;;;1999.90;999.90;;;;;;;-0.13;100.00;97949.63;5110126;28;20098;-75
2023/01/22 01:33:52;;;;;;;1999.90;999.90;;;;;;;-0.09;100.00;97958.03;5110628;28;20122;-75
2023/01/22 01:36:20;;;;;;;1999.90;999.90;;;;;;;-0.16;100.00;97960.81;5110915;28;20023;-76
2023/01/22 01:38:46;;;;;;;1999.90;999.90;;;;;;;-0.31;100.00;97955.03;5110265;28;20023;-76
2023/01/22 01:41:14;;;;;;;1999.90;999.90;;;;;;;-0.21;100.00;97971.44;5110428;28;20282;-77
2023/01/22 01:43:40;;;;;;;1999.90;999.90;;;;;;;-0.32;100.00;97960.63;5110356;28;20024;-76
2023/01/22 01:46:23;;;;;;;1999.90;999.90;;;;;;;-0.22;100.00;97963.63;5110360;28;20028;-75
2023/01/22 01:48:54;;;;;;;1999.90;999.90;;;;;;;-0.32;100.00;97961.47;5109046;28;20055;-76
2023/01/22 01:51:27;;;;;;;1999.90;999.90;;;;;;;-0.21;100.00;97960.69;5110465;28;20015;-76
2023/01/22 01:53:53;;;;;;;1999.90;999.90;;;;;;;-0.36;100.00;97968.31;5110162;28;20111;-76
2023/01/22 01:56:22;;;;;;;1999.90;999.90;;;;;;;-0.34;100.00;97971.59;5110569;28;20133;-77
2023/01/22 01:58:52;;;;;;;1999.90;999.90;;;;;;;-0.39;100.00;97978.69;5110422;28;20365;-76
2023/01/22 02:01:18;;;;;;;1999.90;999.90;;;;;;;-0.46;100.00;97984.13;5109024;28;20028;-76
2023/01/22 02:03:45;;;;;;;1999.90;999.90;;;;;;;-0.52;100.00;97976.97;5110131;28;20109;-76
2023/01/22 02:06:13;;;;;;;1999.90;999.90;;;;;;;-0.63;100.00;97988.47;5109016;28;20468;-76
2023/01/22 02:08:41;;;;;;;1999.90;999.90;;;;;;;-0.63;100.00;97977.75;5110079;28;20437;-76
2023/01/22 02:11:07;;;;;;;1999.90;999.90;;;;;;;-0.71;100.00;97975.34;5109987;28;20423;-76
2023/01/22 02:13:34;;;;;;;1999.90;999.90;;;;;;;-0.73;100.00;97967.53;5110044;28;20028;-75
2023/01/22 02:16:00;;;;;;;1999.90;999.90;;;;;;;-0.54;100.00;97987.13;5109900;28;20114;-76
2023/01/22 02:18:26;;;;;;;1999.90;999.90;;;;;;;-0.58;100.00;97980.56;5107647;28;20228;-76
2023/01/22 02:20:54;;;;;;;1999.90;999.90;;;;;;;-0.55;100.00;97980.13;5108001;28;20020;-75
2023/01/22 02:23:20;;;;;;;1999.90;999.90;;;;;;;-0.46;100.00;97986.81;5110204;28;20107;-75
2023/01/22 02:25:45;;;;;;;1999.90;999.90;;;;;;;-0.45;100.00;97987.66;5107949;28;20028;-76
2023/01/22 02:28:10;;;;;;;1999.90;999.90;;;;;;;-0.26;100.00;97994.66;5092719;28;20032;-76
2023/01/22 02:30:36;;;;;;;1999.90;999.90;;;;;;;-0.26;100.00;97995.47;5092058;28;20032;-75
2023/01/22 02:33:01;;;;;;;1999.90;999.90;;;;;;;-0.27;100.00;97993.84;5092049;28;20032;-75
2023/01/22 02:35:26;;;;;;;1999.90;999.90;;;;;;;-0.25;100.00;97991.72;5093640;28;20028;-75
2023/01/22 02:37:52;;;;;;;1999.90;999.90;;;;;;;-0.17;100.00;97983.38;5093448;28;20028;-77
2023/01/22 02:40:17;;;;;;;1999.90;999.90;;;;;;;-0.15;100.00;97991.19;5093080;28;20069;-76
2023/01/22 02:42:42;;;;;;;1999.90;999.90;;;;;;;-0.25;100.00;97980.97;5093221;28;20024;-76
2023/01/22 02:45:08;;;;;;;1999.90;999.90;;;;;;;-0.16;100.00;97987.69;5091808;28;20059;-76
2023/01/22 02:47:35;;;;;;;1999.90;999.90;;;;;;;-0.17;100.00;97978.00;5093196;28;20020;-76
2023/01/22 02:50:01;;;;;;;1999.90;999.90;;;;;;;-0.26;100.00;97984.75;5093151;28;20512;-77
2023/01/22 02:52:26;;;;;;;1999.90;999.90;;;;;;;-0.26;100.00;97983.91;5093317;28;20032;-76
2023/01/22 02:54:51;;;;;;;1999.90;999.90;;;;;;;-0.29;100.00;97990.56;5097852;28;20028;-76
2023/01/22 02:57:17;;;;;;;1999.90;999.90;;;;;;;-0.36;100.00;97983.63;5113555;28;20027;-76
2023/01/22 02:59:42;;;;;;;1999.90;999.90;;;;;;;-0.35;100.00;97996.00;5113477;28;20035;-76
2023/01/22 03:02:07;;;;;;;1999.90;999.90;;;;;;;-0.53;100.00;97983.38;5113636;28;20030;-76
2023/01/22 03:04:33;;;;;;;1999.90;999.90;;;;;;;-0.54;100.00;97984.44;5113438;28;20016;-75
2023/01/22 03:06:58;;;;;;;1999.90;999.90;;;;;;;-0.47;100.00;97993.22;5111960;28;20452;-76
2023/01/22 03:09:23;;;;;;;1999.90;999.90;;;;;;;-0.44;100.00;97990.13;5112100;28;20126;-75
2023/01/22 03:11:49;;;;;;;1999.90;999.90;;;;;;;-0.48;100.00;97982.72;5113125;28;20039;-76
2023/01/22 03:22:27;;;;;;;1999.90;999.90;;;;;;;-0.53;100.00;97990.66;5113237;28;20034;-76
2023/01/22 03:24:53;;;;;;;1999.90;999.90;;;;;;;-0.50;100.00;97987.50;5111786;28;20024;-76
2023/01/22 03:27:21;;;;;;;1999.90;999.90;;;;;;;-0.43;100.00;97983.69;5112876;28;20357;-75
2023/01/22 03:29:46;;;;;;;1999.90;999.90;;;;;;;-0.28;100.00;97978.75;5112806;28;20027;-76
2023/01/22 03:32:12;;;;;;;1999.90;999.90;;;;;;;-0.38;100.00;97970.41;5112835;28;20361;-76
2023/01/22 03:34:38;;;;;;;1999.90;999.90;;;;;;;-0.53;100.00;97961.91;5112936;28;20080;-76
2023/01/22 03:37:04;;;;;;;1999.90;999.90;;;;;;;-0.49;100.00;97973.03;5111563;28;20106;-75
2023/01/22 03:39:31;;;;;;;1999.90;999.90;;;;;;;-0.49;100.00;97975.72;5112540;28;20035;-75
2023/01/22 03:41:56;;;;;;;1999.90;999.90;;;;;;;-0.60;100.00;97975.44;5112701;28;20026;-75
2023/01/22 03:44:21;;;;;;;1999.90;999.90;;;;;;;-0.77;100.00;97960.13;5111421;28;20024;-76
2023/01/22 03:46:47;;;;;;;1999.90;999.90;;;;;;;-0.73;100.00;97980.94;5112654;28;20030;-76
2023/01/22 03:49:13;;;;;;;1999.90;999.90;;;;;;;-0.69;100.00;97982.13;5112614;28;20031;-75
2023/01/22 03:51:40;;;;;;;1999.90;999.90;;;;;;;-0.66;100.00;97986.25;5112543;28;20028;-75
2023/01/22 03:54:06;;;;;;;1999.90;999.90;;;;;;;-0.74;100.00;97986.53;5112415;28;20465;-76
2023/01/22 03:56:32;;;;;;;1999.90;999.90;;;;;;;-0.80;100.00;97990.91;5112335;28;20073;-76
2023/01/22 03:58:57;;;;;;;1999.90;999.90;;;;;;;-0.82;100.00;97976.91;5112172;28;20503;-76
2023/01/22 04:01:25;;;;;;;1999.90;999.90;;;;;;;-0.77;100.00;97986.97;5112357;28;20035;-75
2023/01/22 04:03:51;;;;;;;1999.90;999.90;;;;;;;-0.72;100.00;97995.19;5112569;27;20476;-74
2023/01/22 04:06:17;;;;;;;1999.90;999.90;;;;;;;-0.79;100.00;97989.88;5111980;27;20040;-75
2023/01/22 04:08:45;;;;;;;1999.90;999.90;;;;;;;-0.84;100.00;97986.22;5112247;28;20035;-75
2023/01/22 04:11:10;;;;;;;1999.90;999.90;;;;;;;-0.89;100.00;97980.69;5112203;28;20533;-76
2023/01/22 04:13:37;;;;;;;1999.90;999.90;;;;;;;-0.82;100.00;97995.69;5112013;28;20024;-75
2023/01/22 04:16:04;;;;;;;1999.90;999.90;;;;;;;-0.70;100.00;98004.66;5108274;28;20028;-76
2023/01/22 04:18:29;;;;;;;1999.90;999.90;;;;;;;-0.69;100.00;98002.81;5091817;28;20024;-75
2023/01/22 04:20:54;;;;;;;1999.90;999.90;;;;;;;-0.74;100.00;98003.47;5091630;28;20023;-75
2023/01/22 04:23:21;;;;;;;1999.90;999.90;;;;;;;-0.68;100.00;97999.06;5090185;28;20036;-75
2023/01/22 04:25:48;;;;;;;1999.90;999.90;;;;;;;-0.67;100.00;98001.53;5096396;28;20032;-76
2023/01/22 04:28:14;;;;;;;1999.90;999.90;;;;;;;-0.64;100.00;98008.31;5091292;28;20541;-76
2023/01/22 04:30:41;;;;;;;1999.90;999.90;;;;;;;-0.72;100.00;98003.25;5099567;28;20019;-75
2023/01/22 04:33:06;;;;;;;1999.90;999.90;;;;;;;-0.70;100.00;98007.34;5099240;28;20076;-76
2023/01/22 04:35:33;;;;;;;1999.90;999.90;;;;;;;-0.67;100.00;97998.84;5103517;28;20032;-75
2023/01/22 04:37:59;;;;;;;1999.90;999.90;;;;;;;-0.68;100.00;98002.56;5111556;28;20027;-76
2023/01/22 04:40:24;;;;;;;1999.90;999.90;;;;;;;-0.58;100.00;98013.63;5110189;28;20042;-75
2023/01/22 04:42:50;;;;;;;1999.90;999.90;;;;;;;-0.63;100.00;98016.13;5111572;28;20023;-76
2023/01/22 04:45:15;;;;;;;1999.90;999.90;;;;;;;-0.84;100.00;97994.25;5110208;28;20484;-76
2023/01/22 04:47:42;;;;;;;1999.90;999.90;;;;;;;-0.67;100.00;98019.50;5111241;28;20027;-76
2023/01/22 04:50:13;;;;;;;1999.90;999.90;;;;;;;-0.79;100.00;98005.16;5109310;28;20028;-77
2023/01/22 04:52:39;;;;;;;1999.90;999.90;;;;;;;-0.85;100.00;97998.84;5111379;28;20031;-76
2023/01/22 04:55:05;;;;;;;1999.90;999.90;;;;;;;-0.76;100.00;98015.47;5109928;28;20031;-76
2023/01/22 04:57:30;;;;;;;1999.90;999.90;;;;;;;-0.71;100.00;98023.66;5111482;28;20080;-76
2023/01/22 04:59:55;;;;;;;1999.90;999.90;;;;;;;-0.75;100.00;98015.22;5111362;28;20476;-76
2023/01/22 05:02:20;;;;;;;1999.90;999.90;;;;;;;-0.69;100.00;98017.03;5111245;28;20029;-75
2023/01/22 05:04:46;;;;;;;1999.90;999.90;;;;;;;-0.81;100.00;98001.88;5093300;28;20031;-76
2023/01/22 05:07:11;;;;;;;1999.90;999.90;;;;;;;-0.84;100.00;98013.88;5110849;28;20047;-75
2023/01/22 05:09:36;;;;;;;1999.90;999.90;;;;;;;-0.92;100.00;98013.34;5111015;28;20537;-76
2023/01/22 05:12:03;;;;;;;1999.90;999.90;;;;;;;-0.84;100.00;98021.94;5110841;28;20059;-75
2023/01/22 05:14:28;;;;;;;1999.90;999.90;;;;;;;-0.79;100.00;98005.16;5111127;28;20066;-76
2023/01/22 05:16:54;;;;;;;1999.90;999.90;;;;;;;-0.73;100.00;98026.59;5110934;28;20056;-76
2023/01/22 05:19:19;;;;;;;1999.90;999.90;;;;;;;-0.68;100.00;98028.59;5110851;28;20104;-75
2023/01/22 05:21:44;;;;;;;1999.90;999.90;;;;;;;-0.70;100.00;98030.69;5111010;28;20050;-76
2023/01/22 05:24:10;;;;;;;1999.90;999.90;;;;;;;-0.65;100.00;98034.34;5110786;28;20020;-76
2023/01/22 05:26:35;;;;;;;1999.90;999.90;;;;;;;-0.65;100.00;98036.19;5110954;28;20026;-75
2023/01/22 05:29:00;;;;;;;1999.90;999.90;;;;;;;-0.72;100.00;98041.63;5111268;28;20491;-76
2023/01/22 05:31:26;;;;;;;1999.90;999.90;;;;;;;-0.75;100.00;98028.66;5110850;28;20110;-76
2023/01/22 05:33:51;;;;;;;1999.90;999.90;;;;;;;-0.59;100.00;98043.38;5110926;28;20030;-76
2023/01/22 05:36:16;;;;;;;1999.90;999.90;;;;;;;-0.63;100.00;98042.19;5110705;28;20070;-76
2023/01/22 05:38:41;;;;;;;1999.90;999.90;;;;;;;-0.71;100.00;98040.59;5109331;28;20037;-75
2023/01/22 05:41:07;;;;;;;1999.90;999.90;;;;;;;-0.62;100.00;98027.69;5109248;28;20390;-75
2023/01/22 05:43:36;;;;;;;1999.90;999.90;;;;;;;-0.43;100.00;98026.66;5110878;28;20030;-76
2023/01/22 05:46:01;;;;;;;1999.90;999.90;;;;;;;-0.34;100.00;98046.81;5110997;28;20039;-76
2023/01/22 05:48:27;;;;;;;1999.90;999.90;;;;;;;-0.50;100.00;98042.03;5110585;28;20035;-75
2023/01/22 05:50:52;;;;;;;1999.90;999.90;;;;;;;-0.50;100.00;98043.91;5109292;28;20115;-76
2023/01/22 05:53:17;;;;;;;1999.90;999.90;;;;;;;-0.60;100.00;98039.06;5093091;28;20036;-76
2023/01/22 05:55:43;;;;;;;1999.90;999.90;;;;;;;-0.63;100.00;98042.97;5089685;28;20028;-76
2023/01/22 05:58:08;;;;;;;1999.90;999.90;;;;;;;-0.74;100.00;98040.22;5090849;28;20035;-76
2023/01/22 06:00:33;;;;;;;1999.90;999.90;;;;;;;-0.64;100.00;98051.28;5091317;28;20026;-75
2023/01/22 06:03:00;;;;;;;1999.90;999.90;;;;;;;-0.67;100.00;98063.28;5094770;28;20027;-76
2023/01/22 06:05:26;;;;;;;1999.90;999.90;;;;;;;-0.64;100.00;98065.53;5094491;28;20488;-76
2023/01/22 06:07:51;;;;;;;1999.90;999.90;;;;;;;-0.65;100.00;98060.38;5093798;28;20052;-76
2023/01/22 06:10:17;;;;;;;1999.90;999.90;;;;;;;-0.67;100.00;98062.47;5094080;28;20040;-76
2023/01/22 06:12:43;;;;;;;1999.90;999.90;;;;;;;-0.69;100.00;98072.63;5092696;28;20041;-76
2023/01/22 06:15:09;;;;;;;1999.90;999.90;;;;;;;-0.65;100.00;98076.47;5094034;28;20102;-76
2023/01/22 06:17:34;;;;;;;1999.90;999.90;;;;;;;-0.71;100.00;98072.81;5092957;28;20040;-76
2023/01/22 06:20:00;;;;;;;1999.90;999.90;;;;;;;-0.72;100.00;98089.16;5094154;28;20050;-77
2023/01/22 06:22:25;;;;;;;1999.90;999.90;;;;;;;-0.77;100.00;98067.50;5092508;28;20476;-76
2023/01/22 06:24:50;;;;;;;1999.90;999.90;;;;;;;-0.61;100.00;98083.06;5092762;28;20502;-76
2023/01/22 06:27:15;;;;;;;1999.90;999.90;;;;;;;-0.68;100.00;98077.75;5093723;28;20035;-76
2023/01/22 06:29:41;;;;;;;1999.90;999.90;;;;;;;-0.68;100.00;98071.56;5094207;28;20425;-75
2023/01/22 06:32:06;;;;;;;1999.90;999.90;;;;;;;-0.59;100.00;98081.78;5093916;28;20032;-76
2023/01/22 06:34:32;;;;;;;1999.90;999.90;;;;;;;-0.53;100.00;98079.28;5093850;28;20027;-75
2023/01/22 06:36:57;;;;;;;1999.90;999.90;;;;;;;-0.55;100.00;98079.50;5093984;28;20476;-77
2023/01/22 06:39:22;;;;;;;1999.90;999.90;;;;;;;-0.47;100.00;98081.06;5093608;28;20024;-76
2023/01/22 06:41:48;;;;;;;1999.90;999.90;;;;;;;-0.48;100.00;98088.31;5093924;28;20020;-76
2023/01/22 06:44:13;;;;;;;1999.90;999.90;;;;;;;-0.30;100.00;98099.06;5093627;28;20097;-76
2023/01/22 06:46:39;;;;;;;1999.90;999.90;;;;;;;-0.55;100.00;98072.25;5092304;28;20056;-76
2023/01/22 06:49:04;;;;;;;1999.90;999.90;;;;;;;-0.38;100.00;98090.50;5093609;28;20491;-75
2023/01/22 06:51:30;;;;;;;1999.90;999.90;;;;;;;-0.34;100.00;98105.94;5093319;28;20526;-76
2023/01/22 06:53:56;;;;;;;1999.90;999.90;;;;;;;-0.32;100.00;98114.59;5093417;28;20032;-76
2023/01/22 06:56:22;;;;;;;1999.90;999.90;;;;;;;-0.27;100.00;98112.06;5095789;28;20061;-76
2023/01/22 06:58:47;;;;;;;1999.90;999.90;;;;;;;-0.16;100.00;98113.19;5095113;28;20033;-77
2023/01/22 07:01:13;;;;;;;1999.90;999.90;;;;;;;-0.22;100.00;98114.09;5095632;28;20050;-75
2023/01/22 07:03:38;;;;;;;1999.90;999.90;;;;;;;-0.17;100.00;98122.28;5094154;28;20062;-77
2023/01/22 07:06:04;;;;;;;1999.90;999.90;;;;;;;-0.16;100.00;98113.19;5107024;28;20111;-77
2023/01/22 07:08:31;;;;;;;1999.90;999.90;;;;;;;-0.20;100.00;98126.25;5103051;28;20068;-77
2023/01/22 07:10:57;;;;;;;1999.90;999.90;;;;;;;-0.17;100.00;98125.81;5097127;28;20035;-76
2023/01/22 07:13:22;;;;;;;1999.90;999.90;;;;;;;-0.27;100.00;98130.03;5096967;28;20369;-77
2023/01/22 07:15:48;;;;;;;1999.90;999.90;;;;;;;-0.19;100.00;98135.16;5097637;28;20043;-77
2023/01/22 07:18:13;;;;;;;1999.90;999.90;;;;;;;-0.22;100.00;98124.84;5096897;28;20116;-75
2023/01/22 07:20:40;;;;;;;1999.90;999.90;;;;;;;-0.10;100.00;98129.25;5094513;28;20012;-76
2023/01/22 07:23:06;;;;;;;1999.90;999.90;;;;;;;-0.18;100.00;98124.16;5092922;28;20020;-75
2023/01/22 07:25:31;;;;;;;1999.90;999.90;;;;;;;-0.09;100.00;98122.81;5092607;28;20031;-75
2023/01/22 07:28:01;;;;;;;1999.90;999.90;;;;;;;-0.01;100.00;98133.28;5092555;28;20028;-76
2023/01/22 07:30:26;;;;;;;1999.90;999.90;;;;;;;-0.04;100.00;98138.28;5091647;28;20028;-76
2023/01/22 07:32:52;;;;;;;1999.90;999.90;;;;;;;-0.08;100.00;98137.09;5092505;28;20027;-77
2023/01/22 07:35:18;;;;;;;1999.90;999.90;;;;;;;-0.01;100.00;98144.03;5105651;28;20026;-78
2023/01/22 07:37:50;;;;;;;1999.90;999.90;;;;;;;-0.08;100.00;98142.47;5113897;28;20392;-76
2023/01/22 07:40:16;;;;;;;1999.90;999.90;;;;;;;-0.01;100.00;98144.03;5105547;28;20016;-76
2023/01/22 07:42:41;;;;;;;1999.90;999.90;;;;;;;0.09;100.00;98153.47;5092369;28;20028;-76
2023/01/22 07:45:07;;;;;;;1999.90;999.90;;;;;;;0.05;100.00;98147.69;5101368;28;20449;-75
2023/01/22 07:47:32;;;;;;;1999.90;999.90;;;;;;;0.10;100.00;98161.28;5112959;28;20024;-76
2023/01/22 07:49:58;;;;;;;1999.90;999.90;;;;;;;0.08;100.00;98141.88;5110666;28;20435;-76
2023/01/22 07:52:23;;;;;;;1999.90;999.90;;;;;;;0.10;100.00;98155.91;5110912;28;20353;-78
2023/01/22 07:54:48;;;;;;;1999.90;999.90;;;;;;;0.14;100.00;98154.41;5112173;28;20026;-74
2023/01/22 07:57:14;;;;;;;1999.90;999.90;;;;;;;0.19;100.00;98157.25;5112094;28;20023;-76
2023/01/22 07:59:40;;;;;;;1999.90;999.90;;;;;;;0.29;100.00;98164.78;5112686;28;20578;-76
2023/01/22 08:02:05;;;;;;;1999.90;999.90;;;;;;;0.24;100.00;98168.16;5110797;28;20031;-75
2023/01/22 08:04:30;;;;;;;1999.90;999.90;;;;;;;0.20;100.00;98174.22;5112056;28;20015;-75
2023/01/22 08:06:55;;;;;;;1999.90;999.90;;;;;;;0.18;100.00;98170.94;5111739;28;20051;-76
2023/01/22 08:09:24;;;;;;;1999.90;999.90;;;;;;;0.20;100.00;98172.34;5111614;28;20032;-77
2023/01/22 08:11:50;;;;;;;1999.90;999.90;;;;;;;0.27;100.00;98174.97;5110417;28;20111;-75
2023/01/22 08:14:15;;;;;;;1999.90;999.90;;;;;;;0.25;100.00;98171.69;5106476;28;20110;-76
2023/01/22 08:16:41;;;;;;;1999.90;999.90;;;;;;;0.33;100.00;98193.72;5106629;28;20402;-76
2023/01/22 08:19:06;;;;;;;1999.90;999.90;;;;;;;0.29;100.00;98197.06;5099451;28;20427;-75
2023/01/22 08:21:31;;;;;;;1999.90;999.90;;;;;;;0.23;100.00;98197.97;5102224;28;20031;-76
2023/01/22 08:23:57;;;;;;;1999.90;999.90;;;;;;;0.30;100.00;98204.94;5099288;28;20027;-74
2023/01/22 08:26:22;;;;;;;1999.90;999.90;;;;;;;0.37;100.00;98207.53;5082597;28;20016;-77
2023/01/22 08:28:47;;;;;;;1999.90;999.90;;;;;;;0.38;100.00;98207.31;5105633;28;20066;-76
2023/01/22 08:31:13;;;;;;;1999.90;999.90;;;;;;;0.43;100.00;98210.16;5105882;28;20450;-77
2023/01/22 08:33:38;;;;;;;1999.90;999.90;;;;;;;0.41;100.00;98206.03;5098956;28;20130;-75
2023/01/22 08:36:05;;;;;;;1999.90;999.90;;;;;;;0.59;100.00;98211.44;5111327;28;20016;-77
2023/01/22 08:38:30;;;;;;;1999.90;999.90;;;;;;;0.62;100.00;98223.59;5109648;28;20034;-74
2023/01/22 08:40:55;;;;;;;1999.90;999.90;;;;;;;0.67;100.00;98216.50;5111089;28;20106;-75
2023/01/22 08:43:21;;;;;;;1999.90;999.90;;;;;;;0.73;100.00;98214.75;5111016;28;20031;-76
2023/01/22 08:45:47;;;;;;;1999.90;999.90;;;;;;;0.88;100.00;98218.69;5111346;28;20034;-76
2023/01/22 08:48:12;;;;;;;1999.90;999.90;;;;;;;0.99;100.00;98225.19;5113374;28;20127;-78
2023/01/22 08:50:38;;;;;;;1999.90;999.90;;;;;;;1.01;100.00;98231.16;5111016;28;20731;-75
2023/01/22 08:53:03;;;;;;;1999.90;999.90;;;;;;;0.94;100.00;98223.19;5095403;28;20020;-78
2023/01/22 08:55:28;;;;;;;1999.90;999.90;;;;;;;1.03;100.00;98232.56;5093084;28;20032;-77
2023/01/22 08:57:55;;;;;;;1999.90;999.90;;;;;;;1.12;100.00;98234.97;5100639;28;20015;-76
2023/01/22 09:00:22;;;;;;;1999.90;999.90;;;;;;;1.20;100.00;98234.63;5099727;28;20103;-77
2023/01/22 09:02:47;;;;;;;1999.90;999.90;;;;;;;1.10;100.00;98247.84;5099121;28;20024;-81
2023/01/22 09:05:13;;;;;;;1999.90;999.90;;;;;;;1.07;100.00;98247.25;5100088;28;20039;-76
2023/01/22 09:07:38;;;;;;;1999.90;999.90;;;;;;;1.04;100.00;98250.38;5099513;28;20046;-78
2023/01/22 09:10:06;;;;;;;1999.90;999.90;;;;;;;1.00;100.00;98248.41;5099344;28;20034;-77
2023/01/22 09:12:32;;;;;;;1999.90;999.90;;;;;;;1.01;100.00;98250.84;5098335;28;20024;-76
2023/01/22 09:14:58;;;;;;;1999.90;999.90;;;;;;;0.94;100.00;98250.09;5100250;28;20361;-74
2023/01/22 09:17:23;;;;;;;1999.90;999.90;;;;;;;0.96;100.00;98248.03;5099338;28;20469;-76
2023/01/22 09:19:48;;;;;;;1999.90;999.90;;;;;;;1.01;100.00;98263.47;5098333;28;20020;-75
2023/01/22 09:22:14;;;;;;;1999.90;999.90;;;;;;;1.86;100.00;98256.03;5098956;28;20472;-76
2023/01/22 09:24:39;;;;;;;1999.90;999.90;;;;;;;1.81;100.00;98255.91;5098828;28;20032;-76
2023/01/22 09:27:04;;;;;;;1999.90;999.90;;;;;;;1.51;100.00;98266.72;5097849;28;20019;-75
2023/01/22 09:29:29;;;;;;;1999.90;999.90;;;;;;;1.48;100.00;98259.94;5100851;28;20397;-76
2023/01/22 09:31:55;;;;;;;1999.90;999.90;;;;;;;1.62;100.00;98255.19;5100257;28;20480;-76
2023/01/22 09:34:20;;;;;;;1999.90;999.90;;;;;;;1.39;100.00;98257.78;5099812;28;20122;-76
2023/01/22 09:36:46;;;;;;;1999.90;999.90;;;;;;;1.28;100.00;98255.88;5101214;28;20073;-75
2023/01/22 09:39:11;;;;;;;1999.90;999.90;;;;;;;1.24;100.00;98274.38;5100732;28;20061;-75
2023/01/22 09:41:43;;;;;;;1999.90;999.90;;;;;;;1.22;100.00;98271.09;5105348;28;20080;-76
2023/01/22 09:44:39;;;;;;;1999.90;999.90;;;;;;;1.16;100.00;98273.88;5102994;28;20477;-77
2023/01/22 09:47:15;;;;;;;1999.90;999.90;;;;;;;0.94;100.00;98276.22;5104119;28;20499;-75
2023/01/22 09:49:49;;;;;;;1999.90;999.90;;;;;;;0.97;100.00;98275.78;5103933;28;20126;-76
2023/01/22 09:52:14;;;;;;;1999.90;999.90;;;;;;;0.98;100.00;98275.53;5104057;28;20045;-76
2023/01/22 09:54:41;;;;;;;1999.90;999.90;;;;;;;1.02;100.00;98268.66;5101529;28;20020;-76
2023/01/22 09:57:12;;;;;;;1999.90;999.90;;;;;;;1.07;100.00;98274.16;5101369;28;20020;-76
2023/01/22 09:59:44;;;;;;;1999.90;999.90;;;;;;;1.06;100.00;98279.81;5107640;28;20028;-76
2023/01/22 10:02:32;;;;;;;1999.90;999.90;;;;;;;1.14;100.00;98281.34;5109770;28;20024;-75
2023/01/22 10:05:13;;;;;;;1999.90;999.90;;;;;;;1.16;100.00;98281.97;5109675;28;20093;-76
2023/01/22 10:07:43;;;;;;;1999.90;999.90;;;;;;;1.18;100.00;98291.44;5112445;28;20090;-76
2023/01/22 10:10:29;;;;;;;1999.90;999.90;;;;;;;1.20;100.00;98291.22;5107969;28;20028;-75
2023/01/22 10:12:58;;;;;;;;;;;;;;;1.25;100.00;98296.75;5094030;28;20050;-76
2023/01/22 10:15:24;;;;;;;1999.90;999.90;;;;;;;1.08;100.00;98288.47;5093867;28;19912;-76
2023/01/22 10:17:51;;;;;;;1999.90;999.90;;;;;;;1.14;100.00;98305.59;5093803;28;20020;-77
2023/01/22 10:20:19;;;;;;;1999.90;999.90;;;;;;;0.96;100.00;98298.34;5093516;28;20024;-76
2023/01/22 10:22:44;;;;;;;1999.90;999.90;;;;;;;0.96;100.00;98291.09;5092535;28;20052;-76
2023/01/22 10:25:14;;;;;;;1999.90;999.90;;;;;;;1.31;100.00;98303.91;5095294;28;20052;-76
2023/01/22 10:27:40;;;;;;;1999.90;999.90;;;;;;;1.32;100.00;98294.78;5093278;28;20061;-76
2023/01/22 10:30:23;;;;;;;1999.90;999.90;;;;;;;1.56;100.00;98301.91;5092392;28;20039;-76
2023/01/22 10:33:04;;;;;;;1999.90;999.90;;;;;;;1.67;100.00;98303.81;5094412;28;20028;-77
2023/01/22 10:35:31;;;;;;;1999.90;999.90;;;;;;;1.40;100.00;98307.94;5111184;28;20027;-76
2023/01/22 10:37:57;;;;;;;1999.90;999.90;;;;;;;1.50;100.00;98314.41;5113418;28;20135;-75
2023/01/22 10:40:36;;;;;;;1999.90;999.90;;;;;;;1.11;100.00;98298.78;5112937;28;20036;-75
2023/01/22 10:43:15;;;;;;;1999.90;999.90;;;;;;;1.22;100.00;98303.41;5095007;28;20032;-74
2023/01/22 10:45:54;;;;;;;1999.90;999.90;;;;;;;1.01;100.00;98291.25;5092078;28;20415;-75
2023/01/22 10:48:21;;;;;;;1999.90;999.90;;;;;;;1.08;100.00;98297.38;5090329;28;20028;-74
2023/01/22 10:50:59;;;;;;;1999.90;999.90;;;;;;;1.16;100.00;98303.50;5092930;28;20024;-75
2023/01/22 10:53:32;;;;;;;1999.90;999.90;;;;;;;1.13;100.00;98303.97;5092051;28;20008;-74
2023/01/22 10:56:00;;;;;;;1999.90;999.90;;;;;;;1.00;100.00;98303.03;5091054;28;20031;-75